Time;durP1;ratioP1;P1;durP2;ratioP2;P2;SDS_P1;SDS_P2;PMS_P1;PMS_P2;Temp;Humidity;BMP_temperature;BMP_pressure;BME280_temperature;BME280_humidity;BME280_pressure;Samples;Min_cycle;Max_cycle;Signal;HPM_P1;HPM_P2
2023/04/15 00:00:16;;;;;;;18.05;1.80;;;;;;;13.56;47.96;93277.78;5060428;28;20024;-87
2023/04/15 00:02:43;;;;;;;18.65;1.90;;;;;;;13.59;48.36;93273.75;5060606;28;20377;-89
2023/04/15 00:05:08;;;;;;;11.98;1.77;;;;;;;12.85;49.79;93269.88;5044092;28;20055;-88
2023/04/15 00:07:34;;;;;;;15.20;2.15;;;;;;;12.94;50.60;93263.88;5078351;28;20061;-89
2023/04/15 00:09:59;;;;;;;11.75;1.45;;;;;;;13.14;50.42;93268.50;5060212;28;20074;-87
2023/04/15 00:12:26;;;;;;;11.30;2.38;;;;;;;13.41;49.88;93263.22;5059759;28;20024;-88
2023/04/15 00:14:52;;;;;;;14.73;1.90;;;;;;;13.45;49.47;93258.13;5060256;28;20031;-88
2023/04/15 00:17:17;;;;;;;14.50;2.20;;;;;;;12.98;50.63;93254.28;5043368;28;20422;-88
2023/04/15 00:19:45;;;;;;;8.50;1.70;;;;;;;13.03;50.25;93246.22;5077715;28;20307;-88
2023/04/15 00:22:11;;;;;;;8.45;1.30;;;;;;;13.00;50.93;93257.38;5060449;28;20089;-88
2023/04/15 00:24:37;;;;;;;8.93;1.35;;;;;;;13.78;48.73;93244.47;5043585;28;20115;-88
2023/04/15 00:27:03;;;;;;;7.93;1.33;;;;;;;13.76;48.54;93241.34;5040589;28;20115;-88
2023/04/15 00:29:29;;;;;;;7.75;1.30;;;;;;;12.97;51.24;93242.22;5042303;28;20452;-88
2023/04/15 00:31:55;;;;;;;8.57;1.83;;;;;;;13.51;50.54;93249.00;5040909;28;20028;-88
2023/04/15 00:34:21;;;;;;;7.40;1.17;;;;;;;13.60;50.23;93238.47;5043875;28;20032;-88
2023/04/15 00:36:46;;;;;;;7.53;1.30;;;;;;;13.73;49.64;93240.13;5028359;28;20035;-88
2023/04/15 00:39:12;;;;;;;10.30;1.42;;;;;;;13.49;50.59;93248.56;5051280;28;20032;-88
2023/04/15 00:41:38;;;;;;;5.57;1.23;;;;;;;13.06;51.90;93235.09;5043334;28;20035;-89
2023/04/15 00:44:08;;;;;;;9.57;1.20;;;;;;;13.16;52.42;93236.63;5059839;28;20021;-88
2023/04/15 00:46:38;;;;;;;10.68;1.67;;;;;;;13.32;52.37;93236.16;5042922;28;20094;-88
2023/04/15 00:49:05;;;;;;;4.28;1.40;;;;;;;13.54;50.79;93233.34;5043062;28;20032;-87
2023/04/15 00:51:32;;;;;;;12.15;2.05;;;;;;;13.33;50.50;93235.06;5043041;28;20024;-88
2023/04/15 00:53:58;;;;;;;10.63;1.23;;;;;;;13.03;52.78;93234.94;5059664;28;20422;-88
2023/04/15 00:56:24;;;;;;;9.73;1.35;;;;;;;13.42;51.96;93227.94;5043010;28;20046;-88
2023/04/15 00:58:51;;;;;;;6.43;1.48;;;;;;;13.13;53.15;93227.50;5042748;28;20028;-88
2023/04/15 01:01:26;;;;;;;10.48;1.45;;;;;;;13.32;52.43;93229.03;5059475;28;20475;-88
2023/04/15 01:03:51;;;;;;;6.28;1.02;;;;;;;13.27;52.69;93226.56;5059396;28;20495;-89
2023/04/15 01:06:20;;;;;;;8.65;1.40;;;;;;;12.97;53.31;93224.56;5059214;28;20064;-88
2023/04/15 01:08:45;;;;;;;5.32;1.05;;;;;;;12.95;53.49;93232.00;5059080;28;20032;-88
2023/04/15 01:11:12;;;;;;;10.68;1.30;;;;;;;13.02;53.73;93228.91;5042289;28;20024;-88
2023/04/15 01:13:37;;;;;;;11.10;1.75;;;;;;;12.65;54.60;93225.81;5042634;28;20046;-88
2023/04/15 01:16:03;;;;;;;8.70;1.17;;;;;;;12.69;54.38;93224.88;5042797;28;20028;-88
2023/04/15 01:18:30;;;;;;;13.48;1.33;;;;;;;12.70;55.18;93229.06;5054650;28;20418;-88
2023/04/15 01:20:56;;;;;;;10.02;1.23;;;;;;;12.67;54.99;93215.75;5038597;28;20086;-89
2023/04/15 01:23:25;;;;;;;7.10;1.35;;;;;;;12.75;54.46;93216.84;5022903;28;20025;-88
2023/04/15 01:25:52;;;;;;;5.53;0.85;;;;;;;12.93;54.42;93220.25;5039010;28;20036;-88
2023/04/15 01:28:17;;;;;;;9.30;1.23;;;;;;;12.30;56.88;93214.16;5039079;28;20386;-88
2023/04/15 01:30:43;;;;;;;10.65;1.42;;;;;;;12.64;55.45;93211.13;5039069;28;20056;-87
2023/04/15 01:33:09;;;;;;;16.90;2.25;;;;;;;12.81;54.14;93212.97;5039068;28;20120;-88
2023/04/15 01:35:34;;;;;;;8.10;1.27;;;;;;;13.03;53.12;93219.94;5039023;28;20056;-88
2023/04/15 01:38:06;;;;;;;4.63;1.10;;;;;;;13.33;52.64;93209.53;5056611;28;20455;-89
2023/04/15 01:40:32;;;;;;;3.03;0.73;;;;;;;13.18;52.35;93217.91;5039062;28;20347;-88
2023/04/15 01:42:58;;;;;;;9.57;1.38;;;;;;;13.19;52.30;93214.19;5039026;28;20086;-88
2023/04/15 01:45:23;;;;;;;8.82;1.05;;;;;;;13.12;53.20;93215.44;5038947;28;20025;-89
2023/04/15 01:47:49;;;;;;;4.13;1.05;;;;;;;13.17;52.40;93219.78;5038791;28;20024;-88
2023/04/15 01:50:14;;;;;;;12.25;1.25;;;;;;;12.97;53.38;93210.66;5039072;28;20055;-88
2023/04/15 01:52:40;;;;;;;11.77;1.02;;;;;;;12.95;53.32;93212.84;5038911;28;20056;-88
2023/04/15 01:55:07;;;;;;;5.57;1.50;;;;;;;13.21;53.68;93217.31;5022583;28;20029;-88
2023/04/15 01:57:32;;;;;;;8.70;1.30;;;;;;;12.89;54.37;93217.47;5022676;28;20029;-88
2023/04/15 01:59:58;;;;;;;15.25;1.30;;;;;;;12.82;54.12;93217.16;5022411;28;20032;-87
2023/04/15 02:02:23;;;;;;;3.22;1.05;;;;;;;12.94;54.12;93216.56;5039125;28;20430;-88
2023/04/15 02:04:49;;;;;;;8.98;1.20;;;;;;;12.69;54.86;93218.84;5022162;28;20024;-88
2023/04/15 02:07:14;;;;;;;8.85;1.10;;;;;;;12.59;55.64;93215.44;5039071;28;20437;-88
2023/04/15 02:09:40;;;;;;;4.78;0.80;;;;;;;13.00;55.10;93215.28;5050891;28;20028;-88
2023/04/15 02:12:05;;;;;;;8.07;0.90;;;;;;;13.09;55.58;93218.69;5058659;28;20087;-88
2023/04/15 02:14:31;;;;;;;6.05;1.00;;;;;;;12.86;56.00;93212.84;5058604;28;20483;-88
2023/04/15 02:16:56;;;;;;;5.15;0.82;;;;;;;12.56;56.88;93213.44;5058717;28;20024;-88
2023/04/15 02:19:21;;;;;;;4.13;0.65;;;;;;;12.77;56.47;93209.44;5058542;28;20025;-88
2023/04/15 02:21:47;;;;;;;2.92;0.88;;;;;;;12.71;56.42;93212.22;5042196;28;20063;-88
2023/04/15 02:24:12;;;;;;;5.63;1.20;;;;;;;12.85;55.88;93212.06;5058513;28;20116;-88
2023/04/15 02:26:38;;;;;;;7.28;1.35;;;;;;;12.55;56.37;93214.50;5042045;28;20029;-88
2023/04/15 02:29:03;;;;;;;2.88;0.90;;;;;;;13.10;54.72;93222.88;5041972;28;20115;-88
2023/04/15 02:31:29;;;;;;;5.57;1.00;;;;;;;12.91;54.79;93222.41;5042090;28;20310;-88
2023/04/15 02:33:54;;;;;;;3.97;0.75;;;;;;;12.83;55.46;93216.84;5076182;28;20030;-87
2023/04/15 02:36:20;;;;;;;5.68;1.17;;;;;;;13.36;54.52;93219.44;5043463;28;20035;-88
2023/04/15 02:38:45;;;;;;;7.80;0.70;;;;;;;13.78;53.47;93212.88;5061917;28;20354;-88
2023/04/15 02:41:11;;;;;;;5.40;0.65;;;;;;;12.80;55.70;93216.69;5045157;28;20040;-89
2023/04/15 02:43:38;;;;;;;6.78;0.65;;;;;;;13.27;54.87;93216.84;5061963;28;20432;-88
2023/04/15 02:46:04;;;;;;;1.48;0.70;;;;;;;13.66;53.50;93216.91;5062159;28;20386;-88
2023/04/15 02:48:30;;;;;;;4.20;0.70;;;;;;;13.36;55.10;93219.44;5061673;28;20098;-88
2023/04/15 02:51:18;;;;;;;7.75;1.02;;;;;;;13.58;54.15;93222.97;5061853;28;20024;-88
2023/04/15 02:53:44;;;;;;;6.88;1.10;;;;;;;13.14;55.19;93221.16;5062056;28;20158;-88
2023/04/15 02:56:10;;;;;;;4.80;1.33;;;;;;;12.95;55.15;93221.47;5061748;28;20020;-88
2023/04/15 02:58:36;;;;;;;7.95;1.30;;;;;;;12.80;55.70;93220.09;5061755;28;20021;-88
2023/04/15 03:01:01;;;;;;;9.10;1.25;;;;;;;12.67;56.81;93228.91;5061480;28;20032;-88
2023/04/15 03:03:27;;;;;;;4.10;0.88;;;;;;;12.51;57.56;93224.09;5044906;28;20115;-89
2023/04/15 03:05:53;;;;;;;5.90;1.05;;;;;;;12.54;57.31;93225.31;5061645;28;20021;-88
2023/04/15 03:08:19;;;;;;;11.10;1.38;;;;;;;12.42;58.36;93220.66;5044953;28;20030;-88
2023/04/15 03:10:45;;;;;;;9.85;1.23;;;;;;;12.32;58.70;93216.50;5061455;28;20418;-88
2023/04/15 03:13:10;;;;;;;2.03;0.80;;;;;;;12.27;59.02;93216.63;5045021;28;20027;-88
2023/04/15 03:15:36;;;;;;;10.75;1.45;;;;;;;12.16;60.94;93221.38;5061350;28;20032;-87
2023/04/15 03:18:01;;;;;;;7.47;1.00;;;;;;;12.35;60.09;93215.13;5061237;28;20074;-89
2023/04/15 03:20:26;;;;;;;6.57;1.02;;;;;;;12.28;60.98;93220.81;5061175;28;20032;-88
2023/04/15 03:22:52;;;;;;;3.80;0.90;;;;;;;12.30;60.85;93214.16;5044874;28;20043;-88
2023/04/15 03:25:17;;;;;;;6.72;1.00;;;;;;;12.14;62.12;93220.91;5061191;28;20035;-88
2023/04/15 03:27:43;;;;;;;2.33;0.60;;;;;;;12.22;62.39;93228.06;5061067;28;20031;-88
2023/04/15 03:30:09;;;;;;;4.40;0.80;;;;;;;12.22;62.53;93225.44;5061017;28;20021;-88
2023/04/15 03:32:34;;;;;;;9.15;0.95;;;;;;;12.05;65.20;93225.34;5044648;28;20028;-88
2023/04/15 03:35:00;;;;;;;5.22;0.80;;;;;;;12.20;63.98;93224.97;5059914;28;20062;-88
2023/04/15 03:37:25;;;;;;;2.70;0.82;;;;;;;12.01;65.05;93225.19;5067984;28;20024;-88
2023/04/15 03:39:50;;;;;;;2.53;0.70;;;;;;;12.09;65.05;93226.31;5057617;28;20032;-87
2023/04/15 03:42:16;;;;;;;2.35;0.65;;;;;;;12.15;64.41;93227.72;5040680;28;20028;-88
2023/04/15 03:44:41;;;;;;;3.67;0.70;;;;;;;12.10;64.53;93230.50;5035938;28;20040;-88
2023/04/15 03:47:07;;;;;;;5.63;0.98;;;;;;;12.05;66.06;93227.97;5042568;28;20503;-88
2023/04/15 03:49:32;;;;;;;1.98;0.63;;;;;;;11.37;72.60;93227.06;5040424;28;20017;-88
2023/04/15 03:51:58;;;;;;;5.78;0.93;;;;;;;11.37;74.36;93227.06;5040763;28;20024;-87
2023/04/15 03:54:24;;;;;;;3.65;0.82;;;;;;;11.40;74.53;93226.44;5058493;28;20064;-88
2023/04/15 03:56:50;;;;;;;2.38;0.57;;;;;;;11.59;72.75;93226.25;5040662;28;20017;-88
2023/04/15 03:59:16;;;;;;;4.28;0.85;;;;;;;11.61;72.02;93225.94;5024116;28;20488;-88
2023/04/15 04:01:41;;;;;;;6.10;0.85;;;;;;;11.66;71.64;93225.81;5040587;28;20029;-87
2023/04/15 04:04:06;;;;;;;5.30;0.65;;;;;;;11.71;70.11;93222.28;5058746;28;20020;-87
2023/04/15 04:06:32;;;;;;;2.97;0.85;;;;;;;11.80;71.00;93219.69;5060384;28;20345;-88
2023/04/15 04:08:57;;;;;;;7.35;0.80;;;;;;;11.66;71.07;93230.28;5043604;28;20028;-88
2023/04/15 04:11:23;;;;;;;4.00;0.77;;;;;;;11.72;71.71;93231.72;5043923;28;20020;-87
2023/04/15 04:13:48;;;;;;;2.40;0.90;;;;;;;11.78;69.54;93237.59;5043860;28;20028;-87
2023/04/15 04:16:14;;;;;;;4.05;0.60;;;;;;;11.67;71.08;93234.44;5060084;28;20031;-88
2023/04/15 04:18:39;;;;;;;2.63;0.50;;;;;;;11.78;71.50;93242.84;5077850;28;20422;-87
2023/04/15 04:21:04;;;;;;;2.05;0.63;;;;;;;11.57;73.72;93238.09;5060031;28;20077;-88
2023/04/15 04:23:30;;;;;;;9.23;0.98;;;;;;;11.24;78.60;93251.50;5059733;28;20028;-88
2023/04/15 04:25:55;;;;;;;6.13;0.60;;;;;;;11.35;74.99;93239.69;5060263;28;20334;-88
2023/04/15 04:28:21;;;;;;;6.50;1.00;;;;;;;11.34;78.77;93247.84;5059875;28;20025;-88
2023/04/15 04:30:46;;;;;;;7.72;0.85;;;;;;;11.35;79.05;93244.94;5059880;28;20020;-88
2023/04/15 04:33:12;;;;;;;3.17;0.57;;;;;;;10.98;82.32;93236.34;5059863;28;20047;-88
2023/04/15 04:35:37;;;;;;;2.50;0.70;;;;;;;11.25;81.02;93251.16;5077632;28;20357;-88
2023/04/15 04:38:03;;;;;;;1.90;0.40;;;;;;;11.51;79.96;93245.31;5059804;28;20025;-88
2023/04/15 04:40:28;;;;;;;1.38;0.50;;;;;;;11.75;76.40;93252.09;5043254;28;20357;-89
2023/04/15 04:42:54;;;;;;;1.38;0.60;;;;;;;11.26;81.03;93249.34;5043127;28;20025;-88
2023/04/15 04:45:19;;;;;;;3.15;0.73;;;;;;;10.92;86.51;93258.50;5059677;28;20024;-88
2023/04/15 04:47:46;;;;;;;1.45;0.50;;;;;;;11.34;81.55;93261.75;5043153;28;20026;-88
2023/04/15 04:50:11;;;;;;;2.05;0.55;;;;;;;11.49;80.25;93255.34;5059739;28;20441;-88
2023/04/15 04:52:37;;;;;;;2.72;0.57;;;;;;;11.57;79.46;93253.84;5043143;28;20028;-88
2023/04/15 04:55:03;;;;;;;7.90;0.82;;;;;;;11.38;82.54;93269.75;5059442;28;20434;-88
2023/04/15 04:57:28;;;;;;;3.30;0.60;;;;;;;11.05;84.45;93259.53;5042526;28;20059;-87
2023/04/15 04:59:54;;;;;;;7.68;0.75;;;;;;;11.55;79.73;93263.88;5059005;28;20055;-88
2023/04/15 05:02:19;;;;;;;2.10;0.43;;;;;;;11.46;78.21;93269.81;5042839;28;20021;-88
2023/04/15 05:04:45;;;;;;;4.00;0.88;;;;;;;11.31;79.15;93270.19;5042945;28;20442;-88
2023/04/15 05:07:11;;;;;;;3.85;0.75;;;;;;;11.28;80.69;93276.03;5059337;28;20017;-87
2023/04/15 05:09:36;;;;;;;3.15;0.52;;;;;;;11.67;76.30;93274.59;5077250;28;20024;-88
2023/04/15 05:12:03;;;;;;;3.65;0.75;;;;;;;11.88;75.79;93277.47;5042861;28;20111;-88
2023/04/15 05:14:29;;;;;;;3.45;1.00;;;;;;;11.37;81.27;93279.50;5059323;28;20021;-88
2023/04/15 05:16:54;;;;;;;2.38;0.50;;;;;;;11.64;78.35;93283.06;5059303;28;20487;-88
2023/04/15 05:19:20;;;;;;;2.72;0.63;;;;;;;11.67;79.04;93282.47;5042567;28;20418;-88
2023/04/15 05:21:45;;;;;;;3.13;0.70;;;;;;;11.73;79.33;93288.34;5042657;28;20020;-88
2023/04/15 05:24:11;;;;;;;1.80;0.57;;;;;;;11.95;78.23;93289.38;5042607;28;20046;-88
2023/04/15 05:26:36;;;;;;;1.75;0.70;;;;;;;12.02;76.54;93293.16;5059002;28;20024;-88
2023/04/15 05:29:02;;;;;;;3.67;0.65;;;;;;;12.13;78.06;93288.41;5042537;28;20024;-89
2023/04/15 05:31:27;;;;;;;3.55;0.75;;;;;;;12.03;80.47;93286.06;5042642;28;20365;-88
2023/04/15 05:33:52;;;;;;;3.85;0.60;;;;;;;11.86;76.57;93291.97;5058654;28;20036;-88
2023/04/15 05:36:18;;;;;;;3.88;0.70;;;;;;;12.03;76.23;93288.69;5076796;28;20070;-88
2023/04/15 05:38:43;;;;;;;3.15;0.50;;;;;;;12.22;75.91;93279.78;5058802;28;20345;-89
2023/04/15 05:41:09;;;;;;;1.40;0.50;;;;;;;12.63;75.82;93293.66;5042416;28;20036;-88
2023/04/15 05:43:34;;;;;;;0.47;0.40;;;;;;;12.93;72.67;93285.97;5058878;28;20042;-88
2023/04/15 05:45:59;;;;;;;4.45;0.63;;;;;;;12.78;77.96;93290.59;5058938;28;20035;-88
2023/04/15 05:48:25;;;;;;;3.00;0.43;;;;;;;12.98;70.66;93298.97;5076959;28;20037;-88
2023/04/15 05:50:50;;;;;;;1.85;0.30;;;;;;;13.09;69.69;93294.97;5058771;28;20067;-89
2023/04/15 05:53:16;;;;;;;2.22;0.50;;;;;;;13.17;67.22;93300.50;5042454;28;20028;-88
2023/04/15 05:55:41;;;;;;;1.48;0.50;;;;;;;13.26;66.90;93304.69;5042401;28;20388;-88
2023/04/15 05:58:06;;;;;;;0.85;0.60;;;;;;;12.96;71.36;93301.13;5058865;28;20049;-88
2023/04/15 06:00:32;;;;;;;1.67;0.40;;;;;;;12.80;70.39;93301.59;5042311;28;20510;-89
2023/04/15 06:02:58;;;;;;;0.47;0.30;;;;;;;12.73;73.86;93299.41;5042365;28;20123;-89
2023/04/15 06:05:24;;;;;;;1.45;0.63;;;;;;;12.80;71.39;93301.59;5058758;28;20033;-87
2023/04/15 06:07:50;;;;;;;1.90;0.45;;;;;;;13.25;70.79;93305.00;5042337;28;20039;-88
2023/04/15 06:10:15;;;;;;;1.73;0.50;;;;;;;13.61;68.26;93309.19;5042186;28;20035;-87
2023/04/15 06:12:41;;;;;;;0.70;0.45;;;;;;;13.65;67.58;93307.50;5045976;28;20043;-88
2023/04/15 06:15:09;;;;;;;2.80;0.50;;;;;;;13.82;67.82;93304.03;5046018;28;20145;-87
2023/04/15 06:17:34;;;;;;;1.65;0.50;;;;;;;13.85;63.57;93302.66;5046336;28;20079;-87
2023/04/15 06:20:00;;;;;;;2.03;0.50;;;;;;;13.97;65.12;93304.63;5045716;28;20123;-86
2023/04/15 06:22:25;;;;;;;0.68;0.45;;;;;;;14.02;64.10;93295.78;5045679;28;20028;-88
2023/04/15 06:24:51;;;;;;;0.77;0.20;;;;;;;14.15;62.37;93307.97;5045830;28;20032;-87
2023/04/15 06:27:17;;;;;;;1.02;0.40;;;;;;;14.06;63.19;93307.22;5046095;28;20032;-87
2023/04/15 06:29:42;;;;;;;1.05;0.30;;;;;;;14.11;64.38;93309.72;5045698;28;20378;-87
2023/04/15 06:32:08;;;;;;;2.33;0.47;;;;;;;14.28;63.21;93309.63;5045900;28;20039;-87
2023/04/15 06:34:33;;;;;;;1.00;0.38;;;;;;;13.81;67.41;93318.28;5041962;28;20037;-88
2023/04/15 06:37:00;;;;;;;2.38;0.30;;;;;;;14.05;70.05;93309.09;5042497;28;20037;-88
2023/04/15 06:39:25;;;;;;;0.68;0.30;;;;;;;14.34;64.86;93307.59;5042353;28;20083;-87
2023/04/15 06:41:51;;;;;;;1.60;0.60;;;;;;;14.70;63.05;93301.09;5026279;28;20029;-88
2023/04/15 06:44:17;;;;;;;2.22;0.63;;;;;;;14.70;62.68;93295.03;5026082;28;20072;-88
2023/04/15 06:46:43;;;;;;;0.65;0.43;;;;;;;14.54;62.10;93308.75;5042306;28;20033;-88
2023/04/15 06:49:09;;;;;;;0.47;0.40;;;;;;;14.07;62.83;93312.19;5042059;28;20131;-87
2023/04/15 06:51:35;;;;;;;4.38;0.30;;;;;;;14.00;62.20;93306.66;5042090;28;20119;-88
2023/04/15 06:54:01;;;;;;;1.85;0.50;;;;;;;14.28;63.89;93301.72;5025578;28;20032;-88
2023/04/15 06:56:27;;;;;;;0.95;0.47;;;;;;;13.99;63.04;93305.09;5044226;28;20090;-88
2023/04/15 06:58:52;;;;;;;1.13;0.50;;;;;;;14.56;61.87;93306.56;5045166;28;20036;-87
2023/04/15 07:01:17;;;;;;;0.88;0.38;;;;;;;14.56;61.91;93303.16;5044851;28;20036;-87
2023/04/15 07:03:43;;;;;;;0.70;0.30;;;;;;;14.48;63.85;93307.38;5044811;28;20068;-89
2023/04/15 07:06:09;;;;;;;2.30;0.40;;;;;;;14.75;61.22;93297.50;5045235;28;20082;-88
2023/04/15 07:08:34;;;;;;;3.92;0.50;;;;;;;15.13;64.42;93312.47;5044856;28;20038;-88
2023/04/15 07:11:00;;;;;;;1.60;0.45;;;;;;;14.95;61.09;93311.03;5045015;28;20024;-88
2023/04/15 07:13:26;;;;;;;0.95;0.32;;;;;;;15.21;61.32;93315.38;5045017;28;20419;-88
2023/04/15 07:16:17;;;;;;;1.52;0.50;;;;;;;15.58;59.67;93315.53;5044921;28;20056;-88
2023/04/15 07:18:42;;;;;;;0.82;0.50;;;;;;;15.47;59.85;93312.50;5061115;28;20031;-89
2023/04/15 07:21:08;;;;;;;2.00;0.60;;;;;;;15.16;60.99;93307.63;5044859;28;20130;-88
2023/04/15 07:23:33;;;;;;;0.80;0.50;;;;;;;14.61;59.81;93308.25;5044730;28;20028;-88
2023/04/15 07:25:59;;;;;;;0.68;0.40;;;;;;;15.59;59.05;93314.41;5044790;28;20024;-88
2023/04/15 07:28:24;;;;;;;0.55;0.32;;;;;;;15.80;56.37;93314.38;5044685;28;20366;-88
2023/04/15 07:30:50;;;;;;;3.30;0.55;;;;;;;15.82;56.31;93314.06;5044726;28;20043;-88
2023/04/15 07:33:15;;;;;;;1.35;0.50;;;;;;;15.23;57.25;93313.19;5044577;28;20174;-88
2023/04/15 07:35:41;;;;;;;1.15;0.40;;;;;;;15.55;58.25;93302.97;5044644;28;20106;-88
2023/04/15 07:38:07;;;;;;;0.57;0.20;;;;;;;16.07;56.76;93316.81;5044485;28;20119;-88
2023/04/15 07:40:33;;;;;;;1.20;0.30;;;;;;;16.11;55.71;93313.16;5044520;28;20345;-88
2023/04/15 07:42:58;;;;;;;2.92;0.57;;;;;;;15.66;54.88;93317.31;5078933;28;20032;-88
2023/04/15 07:45:23;;;;;;;1.27;0.43;;;;;;;15.96;56.47;93319.88;5060973;28;20040;-88
2023/04/15 07:47:50;;;;;;;0.50;0.30;;;;;;;16.02;56.90;93319.63;5060700;28;20310;-88
2023/04/15 07:50:16;;;;;;;0.65;0.30;;;;;;;16.04;56.25;93307.66;5078875;28;20028;-88
2023/04/15 07:52:42;;;;;;;1.50;0.50;;;;;;;16.42;53.74;93307.69;5060722;28;20028;-89
2023/04/15 07:55:08;;;;;;;5.25;0.40;;;;;;;16.70;56.88;93305.16;5060583;28;20078;-88
2023/04/15 07:57:35;;;;;;;1.08;0.30;;;;;;;16.48;52.89;93304.50;5078741;28;20111;-89
2023/04/15 08:00:00;;;;;;;1.88;0.40;;;;;;;16.80;53.74;93303.94;5078239;28;20337;-88
2023/04/15 08:02:26;;;;;;;0.85;0.20;;;;;;;16.77;53.64;93305.38;5060538;28;20028;-88
2023/04/15 08:04:52;;;;;;;3.92;0.40;;;;;;;16.63;53.27;93316.28;5078185;28;20029;-87
2023/04/15 08:07:18;;;;;;;1.90;0.40;;;;;;;16.71;53.76;93319.16;5078094;28;20089;-89
2023/04/15 08:09:44;;;;;;;0.55;0.32;;;;;;;16.47;52.63;93312.78;5078270;28;20119;-87
2023/04/15 08:12:12;;;;;;;3.25;0.30;;;;;;;16.58;53.67;93315.75;5078069;28;20028;-88
2023/04/15 08:14:38;;;;;;;0.82;0.32;;;;;;;16.67;52.76;93316.41;5077959;28;20028;-87
2023/04/15 08:17:04;;;;;;;2.13;0.52;;;;;;;16.64;52.93;93311.75;5060124;28;20025;-88
2023/04/15 08:19:30;;;;;;;1.40;0.50;;;;;;;16.57;55.36;93311.56;5059961;28;20024;-88
2023/04/15 08:21:55;;;;;;;1.48;0.38;;;;;;;17.08;51.67;93311.22;5060109;28;20024;-88
2023/04/15 08:24:21;;;;;;;0.57;0.32;;;;;;;16.36;52.12;93315.09;5077938;28;20077;-88
2023/04/15 08:26:47;;;;;;;1.20;0.60;;;;;;;17.04;51.46;93313.75;5077857;28;20032;-87
2023/04/15 08:29:12;;;;;;;3.28;0.45;;;;;;;16.48;50.20;93320.34;5077602;28;20035;-87
2023/04/15 08:31:38;;;;;;;3.15;0.50;;;;;;;16.97;49.88;93316.16;5077646;28;20032;-88
2023/04/15 08:34:03;;;;;;;2.35;0.47;;;;;;;16.71;50.10;93311.22;5077155;28;20426;-87
2023/04/15 08:36:29;;;;;;;1.33;0.40;;;;;;;16.27;52.53;93309.13;5059901;28;20024;-87
2023/04/15 08:38:55;;;;;;;4.05;1.13;;;;;;;16.34;51.49;93311.97;5077441;28;20024;-87
2023/04/15 08:41:24;;;;;;;3.22;0.50;;;;;;;16.80;51.34;93314.53;5059539;28;20434;-88
2023/04/15 08:43:56;;;;;;;3.65;0.50;;;;;;;16.94;49.83;93309.66;5039640;28;20032;-88
2023/04/15 08:46:22;;;;;;;2.78;0.70;;;;;;;16.29;52.17;93318.28;5036255;28;20434;-87
2023/04/15 08:48:48;;;;;;;3.65;0.57;;;;;;;16.67;53.49;93316.41;5022919;28;20033;-88
2023/04/15 08:51:15;;;;;;;2.03;0.45;;;;;;;17.16;52.37;93315.59;5074226;28;20063;-87
2023/04/15 08:53:42;;;;;;;2.17;0.70;;;;;;;17.73;52.66;93309.56;5077345;28;20392;-88
2023/04/15 08:56:09;;;;;;;4.90;0.98;;;;;;;17.90;48.72;93309.25;5076040;28;20032;-88
2023/04/15 08:58:35;;;;;;;1.63;0.50;;;;;;;17.57;49.17;93309.50;5059251;28;20128;-88
2023/04/15 09:01:01;;;;;;;2.53;0.50;;;;;;;16.91;47.04;93312.19;5065408;28;20393;-88
2023/04/15 09:03:29;;;;;;;5.80;0.63;;;;;;;17.34;49.30;93310.03;5047920;28;20044;-87
2023/04/15 09:05:56;;;;;;;3.47;0.85;;;;;;;17.15;48.52;93306.13;5060253;28;20067;-88
2023/04/15 09:08:21;;;;;;;2.00;0.50;;;;;;;16.94;48.64;93304.38;5059428;28;20032;-88
2023/04/15 09:10:57;;;;;;;;;;;;;;;;;;;;;
2023/04/15 09:13:35;;;;;;;3.83;0.77;;;;;;;17.91;47.49;93304.72;5057342;28;20027;-88
2023/04/15 09:16:04;;;;;;;4.53;0.68;;;;;;;18.04;45.67;93295.63;5056251;28;20111;-87
2023/04/15 09:18:32;;;;;;;2.20;0.80;;;;;;;17.25;48.10;93296.94;5039091;28;20045;-87
2023/04/15 09:21:09;;;;;;;3.75;0.60;;;;;;;18.21;47.81;93291.09;5039465;28;20032;-88
2023/04/15 09:23:36;;;;;;;2.95;0.68;;;;;;;18.08;48.86;93288.53;5039863;28;20032;-88
2023/04/15 09:26:02;;;;;;;3.47;0.90;;;;;;;17.44;48.95;93287.63;5043027;28;20059;-87
2023/04/15 09:28:28;;;;;;;2.05;0.50;;;;;;;18.17;47.70;93284.97;5059626;28;20440;-89
2023/04/15 09:31:25;;;;;;;3.08;0.60;;;;;;;18.21;48.42;93286.56;5059243;28;20111;-88
2023/04/15 09:33:57;;;;;;;3.97;0.50;;;;;;;17.98;46.21;93280.28;5039237;28;20028;-88
2023/04/15 09:36:28;;;;;;;3.25;0.60;;;;;;;17.89;47.69;93280.47;5023548;28;20048;-88
2023/04/15 09:38:56;;;;;;;5.63;0.70;;;;;;;18.36;46.07;93277.09;5039217;28;20083;-88
2023/04/15 09:41:22;;;;;;;1.95;0.57;;;;;;;18.59;44.33;93279.13;5039280;28;20060;-88
2023/04/15 09:43:52;;;;;;;3.88;0.73;;;;;;;18.81;45.50;93274.28;5022628;28;20060;-89
2023/04/15 09:46:44;;;;;;;0.88;0.50;;;;;;;19.02;43.98;93273.25;5025228;28;20029;-87
2023/04/15 09:49:11;;;;;;;2.97;0.60;;;;;;;18.32;46.04;93273.59;5023432;28;20039;-88
2023/04/15 09:51:37;;;;;;;2.58;0.60;;;;;;;18.59;43.18;93270.38;5059049;28;20021;-88
2023/04/15 09:54:03;;;;;;;4.40;0.70;;;;;;;18.37;42.23;93273.31;5062032;28;20082;-88
2023/04/15 09:56:40;;;;;;;5.75;0.73;;;;;;;19.24;45.47;93265.69;5046718;28;20051;-88
2023/04/15 09:59:06;;;;;;;5.30;0.80;;;;;;;19.58;41.99;93269.41;5040957;28;20356;-88
2023/04/15 10:01:31;;;;;;;7.43;1.08;;;;;;;18.98;42.80;93257.22;5026678;28;20029;-89
2023/04/15 10:03:57;;;;;;;6.13;1.13;;;;;;;18.70;40.48;93258.13;5026655;28;20033;-88
2023/04/15 10:06:24;;;;;;;2.63;0.50;;;;;;;19.57;44.42;93259.09;5043083;28;20108;-88
2023/04/15 10:08:49;;;;;;;7.65;0.90;;;;;;;19.28;40.07;93258.56;5025655;28;20032;-88
2023/04/15 10:11:17;;;;;;;4.85;0.77;;;;;;;19.30;40.45;93264.31;5042406;28;20021;-88
2023/04/15 10:13:44;;;;;;;6.85;0.93;;;;;;;19.52;39.96;93262.84;5056411;28;20426;-88
2023/04/15 10:16:19;;;;;;;4.45;0.77;;;;;;;19.52;40.63;93257.53;5046321;28;20024;-87
2023/04/15 10:19:00;;;;;;;6.05;0.93;;;;;;;19.47;40.27;93247.97;5045511;28;20533;-89
2023/04/15 10:21:27;;;;;;;6.40;1.40;;;;;;;19.35;42.63;93240.88;5062273;28;20043;-88
2023/04/15 10:23:52;;;;;;;6.07;1.20;;;;;;;18.55;42.74;93240.38;5062421;28;20422;-88
2023/04/15 10:26:18;;;;;;;6.03;1.30;;;;;;;18.78;42.04;93245.78;5062070;28;20166;-88
2023/04/15 10:28:45;;;;;;;7.68;1.55;;;;;;;18.84;44.49;93235.69;5061908;28;20024;-88
2023/04/15 10:31:12;;;;;;;7.10;1.33;;;;;;;19.76;45.60;93237.06;5062756;28;20020;-88
2023/04/15 10:33:38;;;;;;;3.05;1.20;;;;;;;19.52;43.90;93235.50;5045700;28;20453;-89
2023/04/15 10:36:05;;;;;;;4.72;1.23;;;;;;;19.00;44.62;93244.38;5062138;28;20467;-88
2023/04/15 10:38:44;;;;;;;5.80;1.40;;;;;;;18.71;44.38;93242.97;5061793;28;20020;-89
2023/04/15 10:41:23;;;;;;;7.60;1.67;;;;;;;19.54;44.18;93243.88;5062021;28;20028;-88
2023/04/15 10:43:49;;;;;;;4.18;1.77;;;;;;;19.39;45.86;93242.88;5045299;28;20021;-89
2023/04/15 10:46:18;;;;;;;5.65;1.80;;;;;;;18.81;44.04;93247.00;5079472;28;20487;-87
2023/04/15 10:48:49;;;;;;;8.30;1.77;;;;;;;19.26;45.14;93240.34;5045177;28;20087;-89
2023/04/15 10:51:14;;;;;;;4.07;1.60;;;;;;;18.15;46.62;93236.81;5061854;28;20016;-88
2023/04/15 10:53:41;;;;;;;5.93;1.80;;;;;;;18.38;45.43;93242.28;5045207;28;20035;-88
2023/04/15 10:56:07;;;;;;;10.48;1.83;;;;;;;18.33;47.98;93226.63;5061579;28;20025;-87
2023/04/15 10:58:42;;;;;;;7.68;2.05;;;;;;;18.63;49.29;93234.09;5060948;28;20404;-88
2023/04/15 11:01:08;;;;;;;10.07;1.98;;;;;;;18.96;45.21;93238.22;5044907;28;20119;-87
2023/04/15 11:03:39;;;;;;;5.13;1.80;;;;;;;18.99;44.06;93226.94;5045206;28;20119;-88
2023/04/15 11:06:05;;;;;;;6.60;1.75;;;;;;;18.56;45.40;93239.25;5061662;28;20425;-88
2023/04/15 11:08:55;;;;;;;9.10;2.38;;;;;;;18.88;46.46;93237.31;5060989;28;20111;-88
2023/04/15 11:11:21;;;;;;;8.20;2.28;;;;;;;18.38;46.96;93236.97;5049743;28;20105;-87
2023/04/15 11:13:48;;;;;;;6.15;2.25;;;;;;;18.84;46.10;93231.13;5053666;28;20028;-88
2023/04/15 11:16:14;;;;;;;5.63;1.83;;;;;;;18.79;45.61;93226.09;5041472;28;20347;-87
2023/04/15 11:18:39;;;;;;;4.95;1.75;;;;;;;18.64;43.67;93225.81;5061101;28;20029;-88
2023/04/15 11:21:06;;;;;;;7.82;1.98;;;;;;;19.01;46.35;93237.97;5025033;28;20051;-88
2023/04/15 11:23:36;;;;;;;6.15;2.28;;;;;;;18.94;47.13;93235.13;5041500;28;20450;-87
2023/04/15 11:26:08;;;;;;;5.45;1.77;;;;;;;18.97;46.34;93223.03;5041703;28;20025;-87
2023/04/15 11:28:35;;;;;;;4.47;1.50;;;;;;;19.75;46.22;93228.34;5025408;28;20025;-87
2023/04/15 11:31:11;;;;;;;6.93;2.22;;;;;;;20.19;48.10;93221.84;5041591;28;20078;-88